createdAt,value
2023-05-20T00:01:07.264Z,81.25
2023-05-20T00:06:10.448Z,82.31
2023-05-20T00:11:15.081Z,82.10
2023-05-20T00:16:18.162Z,82.76
2023-05-20T00:21:21.315Z,83.35
2023-05-20T00:26:26.168Z,82.47
2023-05-20T00:31:31.299Z,83.17
2023-05-20T00:36:34.270Z,82.73
2023-05-20T00:41:39.197Z,83.16
2023-05-20T00:46:42.389Z,83.43
2023-05-20T00:51:45.544Z,82.46
2023-05-20T00:56:50.228Z,82.85
2023-05-20T01:01:53.489Z,83.64
2023-05-20T01:06:57.565Z,83.38
2023-05-20T01:12:09.761Z,83.69
2023-05-20T01:17:17.859Z,82.48
2023-05-20T01:22:21.537Z,82.40
2023-05-20T01:27:26.595Z,83.41
2023-05-20T01:32:36.897Z,83.64
2023-05-20T01:37:41.512Z,82.44
2023-05-20T01:42:52.950Z,84.42
2023-05-20T01:47:56.449Z,84.17
2023-05-20T01:52:59.718Z,83.02
2023-05-20T01:58:04.276Z,83.68
2023-05-20T02:03:07.355Z,84.28
2023-05-20T02:08:12.198Z,84.93
2023-05-20T02:13:16.568Z,84.61
2023-05-20T02:18:19.634Z,84.78
2023-05-20T02:23:22.688Z,85.83
2023-05-20T02:28:27.125Z,86.91
2023-05-20T02:33:31.534Z,85.15
2023-05-20T02:38:34.611Z,85.26
2023-05-20T02:43:39.159Z,86.20
2023-05-20T02:48:42.346Z,87.22
2023-05-20T02:53:45.615Z,85.77
2023-05-20T02:58:50.218Z,86.25
2023-05-20T03:03:53.892Z,86.89
2023-05-20T03:08:57.091Z,87.27
2023-05-20T03:14:01.841Z,87.52
2023-05-20T03:19:05.192Z,86.61
2023-05-20T03:24:08.476Z,88.35
2023-05-20T03:29:13.005Z,88.01
2023-05-20T03:34:16.264Z,89.82
2023-05-20T03:39:20.717Z,90.53
2023-05-20T03:44:25.245Z,90.61
2023-05-20T03:49:28.370Z,90.10
2023-05-20T03:54:31.635Z,88.71
2023-05-20T03:59:36.629Z,89.67
2023-05-20T04:04:43.205Z,88.06
2023-05-20T04:09:46.832Z,89.11
2023-05-20T04:14:52.705Z,87.90
2023-05-20T04:19:56.150Z,89.03
2023-05-20T04:24:59.425Z,88.93
2023-05-20T04:30:04.534Z,88.68
2023-05-20T04:35:13.881Z,88.73
2023-05-20T04:40:21.424Z,90.41
2023-05-20T04:45:26.865Z,88.43
2023-05-20T04:50:29.936Z,88.81
2023-05-20T04:55:33.236Z,88.00
2023-05-20T05:00:38.817Z,89.05
2023-05-20T05:05:43.060Z,90.84
2023-05-20T05:10:46.946Z,91.38
2023-05-20T05:15:59.466Z,89.82
2023-05-20T05:21:05.065Z,88.94
2023-05-20T05:26:09.954Z,89.08
2023-05-20T05:31:15.278Z,89.56
2023-05-20T05:36:19.030Z,88.07
2023-05-20T05:41:22.384Z,87.32
2023-05-20T05:46:27.059Z,88.47
2023-05-20T05:51:31.452Z,88.01
2023-05-20T05:56:34.799Z,89.07
2023-05-20T06:01:39.520Z,87.57
2023-05-20T06:06:42.861Z,88.78
2023-05-20T06:11:46.006Z,88.33
2023-05-20T06:16:50.969Z,87.16
2023-05-20T06:21:54.127Z,86.44
2023-05-20T06:26:57.441Z,85.65
2023-05-20T06:32:02.013Z,84.64
2023-05-20T06:37:06.056Z,85.29
2023-05-20T06:42:09.987Z,85.94
2023-05-20T06:47:15.972Z,84.98
2023-05-20T06:52:19.979Z,83.85
2023-05-20T06:57:23.624Z,83.85
2023-05-20T07:02:28.170Z,83.66
2023-05-20T07:07:31.659Z,84.03
2023-05-20T07:12:37.074Z,83.11
2023-05-20T07:17:42.359Z,85.23
2023-05-20T07:22:45.838Z,82.79
2023-05-20T07:27:57.829Z,81.95
2023-05-20T07:33:02.336Z,78.01
2023-05-20T07:38:05.691Z,77.81
2023-05-20T07:43:08.928Z,77.15
2023-05-20T07:48:14.319Z,76.40
2023-05-20T07:53:17.651Z,75.80
2023-05-20T07:58:21.589Z,74.23
2023-05-20T08:03:29.142Z,71.54
2023-05-20T08:08:38.269Z,71.86
2023-05-20T08:13:50.102Z,70.69
2023-05-20T08:18:55.304Z,67.89
2023-05-20T08:23:59.210Z,65.74
2023-05-20T08:29:02.587Z,69.17
2023-05-20T08:34:08.111Z,65.83
2023-05-20T08:39:11.433Z,58.69
2023-05-20T08:44:14.644Z,63.03
2023-05-20T08:49:20.600Z,60.03
2023-05-20T08:54:26.826Z,56.35
2023-05-20T08:59:30.161Z,58.06
2023-05-20T09:04:34.748Z,58.04
2023-05-20T09:09:37.924Z,58.02
2023-05-20T09:14:41.018Z,54.93
2023-05-20T09:19:45.668Z,53.16
2023-05-20T09:24:50.155Z,52.14
2023-05-20T09:29:53.354Z,47.43
2023-05-20T09:35:01.423Z,51.63
2023-05-20T09:40:09.544Z,47.62
2023-05-20T09:45:12.721Z,46.58
2023-05-20T09:50:17.354Z,46.99
2023-05-20T09:55:23.993Z,48.58
2023-05-20T10:00:27.019Z,48.41
2023-05-20T10:05:37.397Z,46.71
2023-05-20T10:10:50.627Z,44.45
2023-05-20T10:16:05.690Z,47.52
2023-05-20T10:21:24.574Z,45.35
2023-05-20T10:26:37.695Z,42.43
2023-05-20T10:31:46.203Z,47.15
2023-05-20T10:36:59.408Z,45.61
2023-05-20T10:42:09.506Z,42.01
2023-05-20T10:52:20.523Z,43.61
2023-05-20T10:57:24.507Z,46.99
2023-05-20T11:02:34.718Z,46.87
2023-05-20T11:07:39.251Z,45.58
2023-05-20T11:12:42.526Z,44.12
2023-05-20T11:17:54.562Z,43.36
2023-05-20T11:22:59.110Z,44.01
2023-05-20T11:28:02.183Z,43.62
2023-05-20T11:33:06.273Z,42.73
2023-05-20T11:38:11.428Z,43.61
2023-05-20T11:43:16.331Z,44.55
2023-05-20T11:48:20.695Z,46.63
2023-05-20T11:53:26.291Z,43.55
2023-05-20T11:58:31.595Z,47.81
2023-05-20T12:03:34.977Z,45.02
2023-05-20T12:08:39.671Z,44.35
2023-05-20T12:13:44.704Z,44.88
2023-05-20T12:18:48.240Z,47.16
2023-05-20T12:23:57.706Z,44.73
2023-05-20T12:29:01.495Z,43.17
2023-05-20T12:34:04.605Z,44.23
2023-05-20T12:39:09.538Z,44.29
2023-05-20T12:44:12.697Z,44.14
2023-05-20T12:49:15.965Z,41.88
2023-05-20T12:54:21.843Z,45.47
2023-05-20T12:59:24.873Z,45.75
2023-05-20T13:04:28.062Z,44.05
2023-05-20T13:09:33.048Z,42.69
2023-05-20T13:14:36.099Z,41.66
2023-05-20T13:19:39.181Z,43.63
2023-05-20T13:24:43.632Z,42.67
2023-05-20T13:29:46.751Z,44.25
2023-05-20T13:34:50.001Z,44.49
2023-05-20T13:39:55.028Z,43.10
2023-05-20T13:44:58.008Z,42.54
2023-05-20T13:50:03.050Z,44.63
2023-05-20T13:55:09.609Z,42.42
2023-05-20T14:00:13.884Z,42.34
2023-05-20T14:05:17.216Z,41.93
2023-05-20T14:10:26.850Z,42.26
2023-05-20T14:15:34.254Z,41.52
2023-05-20T14:20:46.602Z,41.61
2023-05-20T14:25:58.940Z,40.21
2023-05-20T14:31:09.851Z,40.17
2023-05-20T14:36:13.094Z,42.03
2023-05-20T14:41:31.819Z,41.09
2023-05-20T14:46:58.652Z,44.56
2023-05-20T14:52:05.046Z,41.11
2023-05-20T14:57:17.567Z,40.76
2023-05-20T15:02:21.039Z,44.46
2023-05-20T15:07:24.430Z,42.80
2023-05-20T15:12:29.321Z,42.46
2023-05-20T15:17:32.464Z,41.37
2023-05-20T15:22:35.856Z,44.91
2023-05-20T15:27:41.967Z,43.61
2023-05-20T15:32:45.316Z,40.58
2023-05-20T15:37:48.682Z,42.24
2023-05-20T15:42:56.711Z,41.85
2023-05-20T15:47:59.832Z,44.18
2023-05-20T15:53:04.030Z,42.77
2023-05-20T15:58:08.598Z,43.10
2023-05-20T16:03:12.143Z,43.86
2023-05-20T16:08:15.255Z,42.84
2023-05-20T16:13:19.762Z,44.73
2023-05-20T16:18:23.508Z,43.57
2023-05-20T16:23:26.606Z,43.10
2023-05-20T16:28:31.230Z,44.49
2023-05-20T16:33:34.746Z,44.79
2023-05-20T16:38:38.051Z,46.00
2023-05-20T16:43:42.421Z,44.09
2023-05-20T16:48:45.578Z,44.69
2023-05-20T16:53:48.713Z,44.46
2023-05-20T16:58:53.482Z,45.70
2023-05-20T17:03:56.657Z,47.02
2023-05-20T17:08:59.782Z,46.14
2023-05-20T17:14:05.234Z,47.76
2023-05-20T17:19:08.631Z,47.88
2023-05-20T17:24:11.699Z,48.38
2023-05-20T17:29:16.296Z,48.01
2023-05-20T17:34:19.406Z,49.10
2023-05-20T17:39:22.399Z,49.17
2023-05-20T17:44:26.891Z,49.34
2023-05-20T17:49:31.163Z,48.86
2023-05-20T17:54:34.279Z,48.25
2023-05-20T17:59:41.651Z,48.28
2023-05-20T18:04:44.723Z,50.35
2023-05-20T18:09:47.843Z,49.74
2023-05-20T18:14:53.741Z,50.09
2023-05-20T18:19:56.690Z,49.83
2023-05-20T18:24:59.681Z,50.76
2023-05-20T18:30:04.651Z,51.33
2023-05-20T18:35:08.774Z,51.95
2023-05-20T18:40:12.704Z,52.27
2023-05-20T18:45:17.172Z,53.18
2023-05-20T18:50:20.167Z,53.50
2023-05-20T18:55:23.880Z,54.38
2023-05-20T19:00:28.387Z,54.62
2023-05-20T19:05:31.454Z,55.85
2023-05-20T19:10:34.591Z,56.12
2023-05-20T19:15:38.974Z,56.53
2023-05-20T19:20:42.129Z,57.13
2023-05-20T19:25:45.857Z,56.67
2023-05-20T19:30:50.615Z,57.36
2023-05-20T19:35:53.621Z,57.71
2023-05-20T19:40:56.714Z,58.47
2023-05-20T19:46:01.660Z,58.81
2023-05-20T19:51:04.942Z,59.23
2023-05-20T19:56:08.360Z,59.43
2023-05-20T20:01:13.126Z,59.45
2023-05-20T20:06:16.368Z,60.32
2023-05-20T20:11:19.532Z,60.78
2023-05-20T20:16:24.035Z,61.24
2023-05-20T20:21:27.134Z,61.41
2023-05-20T20:26:30.896Z,62.36
2023-05-20T20:31:35.870Z,62.14
2023-05-20T20:36:39.761Z,62.91
2023-05-20T20:41:45.466Z,62.86
2023-05-20T20:46:51.625Z,63.32
2023-05-20T20:51:54.779Z,63.32
2023-05-20T20:57:00.007Z,63.87
2023-05-20T21:02:04.638Z,64.19
2023-05-20T21:07:08.548Z,65.22
2023-05-20T21:12:11.693Z,65.39
2023-05-20T21:17:16.125Z,65.65
2023-05-20T21:22:19.055Z,65.86
2023-05-20T21:27:22.123Z,66.80
2023-05-20T21:32:26.823Z,67.10
2023-05-20T21:37:30.274Z,67.92
2023-05-20T21:42:33.602Z,68.40
2023-05-20T21:47:38.361Z,69.31
2023-05-20T21:52:41.453Z,69.34
2023-05-20T21:57:48.444Z,69.83
2023-05-20T22:02:53.746Z,71.20
2023-05-20T22:07:57.287Z,72.60
2023-05-20T22:13:02.081Z,72.76
2023-05-20T22:18:07.731Z,73.49
2023-05-20T22:23:11.479Z,74.66
2023-05-20T22:28:14.549Z,75.17
2023-05-20T22:33:19.648Z,74.90
2023-05-20T22:38:23.990Z,74.08
2023-05-20T22:43:27.125Z,76.61
2023-05-20T22:48:31.574Z,75.75
2023-05-20T22:53:34.980Z,76.50
2023-05-20T22:58:39.815Z,76.31
2023-05-20T23:03:46.855Z,76.97
2023-05-20T23:08:50.394Z,74.79
2023-05-20T23:13:53.523Z,76.57
2023-05-20T23:18:58.060Z,76.02
2023-05-20T23:24:01.456Z,76.13
2023-05-20T23:29:04.668Z,76.79
2023-05-20T23:34:10.496Z,77.77
2023-05-20T23:39:15.607Z,78.40
2023-05-20T23:44:19.685Z,79.56
2023-05-20T23:49:27.256Z,79.04
2023-05-20T23:54:34.300Z,80.39
2023-05-20T23:59:37.313Z,82.20
